sensor_id;sensor_type;location;lat;lon;timestamp;P1;durP1;ratioP1;P2;durP2;ratioP2
20067;SDS011;10194;50.824;7.134;2022-12-18T00:01:14;201.90;;;182.40;;
20067;SDS011;10194;50.824;7.134;2022-12-18T00:04:02;199.07;;;180.03;;
20067;SDS011;10194;50.824;7.134;2022-12-18T00:06:51;200.77;;;181.10;;
20067;SDS011;10194;50.824;7.134;2022-12-18T00:09:17;201.37;;;182.20;;
20067;SDS011;10194;50.824;7.134;2022-12-18T00:11:44;199.57;;;181.03;;
20067;SDS011;10194;50.824;7.134;2022-12-18T00:14:11;207.67;;;187.83;;
20067;SDS011;10194;50.824;7.134;2022-12-18T00:16:38;198.77;;;180.40;;
20067;SDS011;10194;50.824;7.134;2022-12-18T00:19:05;201.37;;;182.20;;
20067;SDS011;10194;50.824;7.134;2022-12-18T00:21:32;206.80;;;187.13;;
20067;SDS011;10194;50.824;7.134;2022-12-18T00:23:59;203.37;;;183.90;;
20067;SDS011;10194;50.824;7.134;2022-12-18T00:26:29;199.80;;;181.43;;
20067;SDS011;10194;50.824;7.134;2022-12-18T00:29:02;203.73;;;184.17;;
20067;SDS011;10194;50.824;7.134;2022-12-18T00:31:35;201.93;;;182.17;;
20067;SDS011;10194;50.824;7.134;2022-12-18T00:34:02;202.40;;;183.23;;
20067;SDS011;10194;50.824;7.134;2022-12-18T00:36:29;205.10;;;185.30;;
20067;SDS011;10194;50.824;7.134;2022-12-18T00:38:59;197.60;;;179.30;;
20067;SDS011;10194;50.824;7.134;2022-12-18T00:41:27;208.60;;;188.67;;
20067;SDS011;10194;50.824;7.134;2022-12-18T00:44:13;201.70;;;182.60;;
20067;SDS011;10194;50.824;7.134;2022-12-18T00:46:42;203.00;;;184.17;;
20067;SDS011;10194;50.824;7.134;2022-12-18T00:49:09;191.77;;;175.00;;
20067;SDS011;10194;50.824;7.134;2022-12-18T00:51:35;201.77;;;183.47;;
20067;SDS011;10194;50.824;7.134;2022-12-18T00:54:01;198.43;;;179.33;;
20067;SDS011;10194;50.824;7.134;2022-12-18T00:56:27;196.40;;;177.37;;
20067;SDS011;10194;50.824;7.134;2022-12-18T00:58:53;189.80;;;172.83;;
20067;SDS011;10194;50.824;7.134;2022-12-18T01:01:18;201.73;;;181.27;;
20067;SDS011;10194;50.824;7.134;2022-12-18T01:03:44;195.37;;;176.70;;
20067;SDS011;10194;50.824;7.134;2022-12-18T01:06:12;191.77;;;174.57;;
20067;SDS011;10194;50.824;7.134;2022-12-18T01:08:39;200.07;;;180.70;;
20067;SDS011;10194;50.824;7.134;2022-12-18T01:11:08;197.27;;;179.53;;
20067;SDS011;10194;50.824;7.134;2022-12-18T01:13:45;199.47;;;180.37;;
20067;SDS011;10194;50.824;7.134;2022-12-18T01:16:12;195.73;;;176.83;;
20067;SDS011;10194;50.824;7.134;2022-12-18T01:18:39;199.27;;;180.33;;
20067;SDS011;10194;50.824;7.134;2022-12-18T01:21:06;199.60;;;180.27;;
20067;SDS011;10194;50.824;7.134;2022-12-18T01:23:38;202.17;;;183.50;;
20067;SDS011;10194;50.824;7.134;2022-12-18T01:26:04;204.13;;;184.47;;
20067;SDS011;10194;50.824;7.134;2022-12-18T01:28:36;202.13;;;182.53;;
20067;SDS011;10194;50.824;7.134;2022-12-18T01:31:13;200.43;;;181.80;;
20067;SDS011;10194;50.824;7.134;2022-12-18T01:33:52;203.27;;;183.77;;
20067;SDS011;10194;50.824;7.134;2022-12-18T01:36:22;202.87;;;184.03;;
20067;SDS011;10194;50.824;7.134;2022-12-18T01:38:51;203.27;;;184.37;;
20067;SDS011;10194;50.824;7.134;2022-12-18T01:41:20;201.30;;;181.63;;
20067;SDS011;10194;50.824;7.134;2022-12-18T01:43:53;198.20;;;179.13;;
20067;SDS011;10194;50.824;7.134;2022-12-18T01:46:25;202.23;;;183.00;;
20067;SDS011;10194;50.824;7.134;2022-12-18T01:48:56;198.23;;;179.57;;
20067;SDS011;10194;50.824;7.134;2022-12-18T01:51:25;200.23;;;180.47;;
20067;SDS011;10194;50.824;7.134;2022-12-18T01:53:53;193.23;;;175.43;;
20067;SDS011;10194;50.824;7.134;2022-12-18T01:56:19;197.67;;;178.67;;
20067;SDS011;10194;50.824;7.134;2022-12-18T01:59:06;195.03;;;176.40;;
20067;SDS011;10194;50.824;7.134;2022-12-18T02:01:36;197.37;;;178.83;;
20067;SDS011;10194;50.824;7.134;2022-12-18T02:09:57;197.57;;;178.63;;
20067;SDS011;10194;50.824;7.134;2022-12-18T02:12:35;199.33;;;180.90;;
20067;SDS011;10194;50.824;7.134;2022-12-18T02:17:47;201.13;;;182.27;;
20067;SDS011;10194;50.824;7.134;2022-12-18T02:20:25;196.43;;;177.90;;
20067;SDS011;10194;50.824;7.134;2022-12-18T02:29:10;189.10;;;171.60;;
20067;SDS011;10194;50.824;7.134;2022-12-18T02:31:47;183.43;;;166.70;;
20067;SDS011;10194;50.824;7.134;2022-12-18T02:34:18;186.50;;;168.77;;
20067;SDS011;10194;50.824;7.134;2022-12-18T02:36:46;180.40;;;162.63;;
20067;SDS011;10194;50.824;7.134;2022-12-18T02:39:13;184.10;;;167.10;;
20067;SDS011;10194;50.824;7.134;2022-12-18T02:41:41;180.87;;;163.97;;
20067;SDS011;10194;50.824;7.134;2022-12-18T02:44:08;187.80;;;169.17;;
20067;SDS011;10194;50.824;7.134;2022-12-18T02:46:41;184.13;;;165.80;;
20067;SDS011;10194;50.824;7.134;2022-12-18T02:57:49;180.13;;;164.03;;
20067;SDS011;10194;50.824;7.134;2022-12-18T03:00:31;189.20;;;171.10;;
20067;SDS011;10194;50.824;7.134;2022-12-18T03:05:50;193.83;;;175.77;;
20067;SDS011;10194;50.824;7.134;2022-12-18T03:08:24;195.60;;;177.33;;
20067;SDS011;10194;50.824;7.134;2022-12-18T03:10:58;190.93;;;172.83;;
20067;SDS011;10194;50.824;7.134;2022-12-18T03:13:37;196.57;;;178.97;;
20067;SDS011;10194;50.824;7.134;2022-12-18T03:16:22;194.50;;;175.73;;
20067;SDS011;10194;50.824;7.134;2022-12-18T03:19:03;186.00;;;168.80;;
20067;SDS011;10194;50.824;7.134;2022-12-18T03:21:49;182.77;;;166.33;;
20067;SDS011;10194;50.824;7.134;2022-12-18T03:24:19;191.20;;;173.63;;
20067;SDS011;10194;50.824;7.134;2022-12-18T03:26:47;188.43;;;170.87;;
20067;SDS011;10194;50.824;7.134;2022-12-18T03:29:20;190.63;;;171.47;;
20067;SDS011;10194;50.824;7.134;2022-12-18T03:31:54;185.83;;;168.93;;
20067;SDS011;10194;50.824;7.134;2022-12-18T03:34:32;186.23;;;168.43;;
20067;SDS011;10194;50.824;7.134;2022-12-18T03:37:00;182.93;;;166.13;;
20067;SDS011;10194;50.824;7.134;2022-12-18T03:39:28;179.70;;;162.87;;
20067;SDS011;10194;50.824;7.134;2022-12-18T03:42:02;179.83;;;162.80;;
20067;SDS011;10194;50.824;7.134;2022-12-18T03:47:30;178.80;;;162.30;;
20067;SDS011;10194;50.824;7.134;2022-12-18T03:52:38;187.67;;;169.50;;
20067;SDS011;10194;50.824;7.134;2022-12-18T03:55:16;178.80;;;161.90;;
20067;SDS011;10194;50.824;7.134;2022-12-18T03:57:44;183.13;;;165.67;;
20067;SDS011;10194;50.824;7.134;2022-12-18T04:00:11;182.17;;;164.50;;
20067;SDS011;10194;50.824;7.134;2022-12-18T04:02:41;186.83;;;169.60;;
20067;SDS011;10194;50.824;7.134;2022-12-18T04:05:14;189.10;;;171.20;;
20067;SDS011;10194;50.824;7.134;2022-12-18T04:07:42;183.83;;;167.37;;
20067;SDS011;10194;50.824;7.134;2022-12-18T04:10:10;192.40;;;172.77;;
20067;SDS011;10194;50.824;7.134;2022-12-18T04:12:38;190.37;;;171.27;;
20067;SDS011;10194;50.824;7.134;2022-12-18T04:15:04;189.37;;;171.33;;
20067;SDS011;10194;50.824;7.134;2022-12-18T04:17:31;193.83;;;175.40;;
20067;SDS011;10194;50.824;7.134;2022-12-18T04:19:56;193.80;;;175.30;;
20067;SDS011;10194;50.824;7.134;2022-12-18T04:22:22;188.33;;;170.47;;
20067;SDS011;10194;50.824;7.134;2022-12-18T04:24:48;191.07;;;173.20;;
20067;SDS011;10194;50.824;7.134;2022-12-18T04:27:13;187.83;;;169.03;;
20067;SDS011;10194;50.824;7.134;2022-12-18T04:29:39;190.87;;;171.57;;
20067;SDS011;10194;50.824;7.134;2022-12-18T04:32:05;185.57;;;167.90;;
20067;SDS011;10194;50.824;7.134;2022-12-18T04:34:32;187.23;;;169.20;;
20067;SDS011;10194;50.824;7.134;2022-12-18T04:36:58;192.70;;;173.60;;
20067;SDS011;10194;50.824;7.134;2022-12-18T04:39:23;181.90;;;165.33;;
20067;SDS011;10194;50.824;7.134;2022-12-18T04:41:49;183.03;;;166.03;;
20067;SDS011;10194;50.824;7.134;2022-12-18T04:44:15;182.87;;;165.37;;
20067;SDS011;10194;50.824;7.134;2022-12-18T04:46:41;181.27;;;163.67;;
20067;SDS011;10194;50.824;7.134;2022-12-18T04:49:06;179.67;;;162.17;;
20067;SDS011;10194;50.824;7.134;2022-12-18T04:51:32;181.33;;;164.83;;
20067;SDS011;10194;50.824;7.134;2022-12-18T04:53:58;181.80;;;164.10;;
20067;SDS011;10194;50.824;7.134;2022-12-18T04:56:23;178.53;;;161.30;;
20067;SDS011;10194;50.824;7.134;2022-12-18T04:58:49;186.47;;;168.40;;
20067;SDS011;10194;50.824;7.134;2022-12-18T05:01:15;188.67;;;171.33;;
20067;SDS011;10194;50.824;7.134;2022-12-18T05:03:43;187.40;;;169.27;;
20067;SDS011;10194;50.824;7.134;2022-12-18T05:06:09;188.33;;;171.23;;
20067;SDS011;10194;50.824;7.134;2022-12-18T05:08:35;193.37;;;174.67;;
20067;SDS011;10194;50.824;7.134;2022-12-18T05:11:02;192.43;;;174.27;;
20067;SDS011;10194;50.824;7.134;2022-12-18T05:13:40;188.07;;;170.70;;
20067;SDS011;10194;50.824;7.134;2022-12-18T05:16:08;191.30;;;173.97;;
20067;SDS011;10194;50.824;7.134;2022-12-18T05:18:34;189.43;;;171.40;;
20067;SDS011;10194;50.824;7.134;2022-12-18T05:21:00;193.37;;;175.03;;
20067;SDS011;10194;50.824;7.134;2022-12-18T05:23:27;183.70;;;166.47;;
20067;SDS011;10194;50.824;7.134;2022-12-18T05:25:53;180.60;;;162.83;;
20067;SDS011;10194;50.824;7.134;2022-12-18T05:28:23;179.33;;;163.10;;
20067;SDS011;10194;50.824;7.134;2022-12-18T05:30:51;183.40;;;166.10;;
20067;SDS011;10194;50.824;7.134;2022-12-18T05:33:19;181.33;;;164.13;;
20067;SDS011;10194;50.824;7.134;2022-12-18T05:35:53;184.43;;;166.40;;
20067;SDS011;10194;50.824;7.134;2022-12-18T05:38:22;179.27;;;161.17;;
20067;SDS011;10194;50.824;7.134;2022-12-18T05:40:51;178.33;;;161.20;;
20067;SDS011;10194;50.824;7.134;2022-12-18T05:43:18;172.07;;;155.63;;
20067;SDS011;10194;50.824;7.134;2022-12-18T05:45:48;173.37;;;156.13;;
20067;SDS011;10194;50.824;7.134;2022-12-18T05:48:15;181.80;;;163.73;;
20067;SDS011;10194;50.824;7.134;2022-12-18T05:50:42;175.07;;;158.43;;
20067;SDS011;10194;50.824;7.134;2022-12-18T05:53:16;181.60;;;163.87;;
20067;SDS011;10194;50.824;7.134;2022-12-18T05:55:44;184.53;;;166.73;;
20067;SDS011;10194;50.824;7.134;2022-12-18T05:58:11;193.97;;;175.80;;
20067;SDS011;10194;50.824;7.134;2022-12-18T06:00:39;183.57;;;166.33;;
20067;SDS011;10194;50.824;7.134;2022-12-18T06:03:09;192.93;;;174.47;;
20067;SDS011;10194;50.824;7.134;2022-12-18T06:05:37;184.13;;;167.80;;
20067;SDS011;10194;50.824;7.134;2022-12-18T06:08:05;190.63;;;172.97;;
20067;SDS011;10194;50.824;7.134;2022-12-18T06:10:31;183.43;;;166.93;;
20067;SDS011;10194;50.824;7.134;2022-12-18T06:12:57;197.07;;;178.23;;
20067;SDS011;10194;50.824;7.134;2022-12-18T06:15:23;193.90;;;175.57;;
20067;SDS011;10194;50.824;7.134;2022-12-18T06:17:49;200.33;;;181.17;;
20067;SDS011;10194;50.824;7.134;2022-12-18T06:20:16;192.93;;;174.43;;
20067;SDS011;10194;50.824;7.134;2022-12-18T06:22:41;184.77;;;167.07;;
20067;SDS011;10194;50.824;7.134;2022-12-18T06:25:07;193.97;;;175.30;;
20067;SDS011;10194;50.824;7.134;2022-12-18T06:27:33;198.53;;;179.63;;
20067;SDS011;10194;50.824;7.134;2022-12-18T06:29:59;197.60;;;178.30;;
20067;SDS011;10194;50.824;7.134;2022-12-18T06:32:26;197.83;;;179.47;;
20067;SDS011;10194;50.824;7.134;2022-12-18T06:34:52;198.43;;;179.97;;
20067;SDS011;10194;50.824;7.134;2022-12-18T06:37:18;199.80;;;181.30;;
20067;SDS011;10194;50.824;7.134;2022-12-18T06:39:44;201.80;;;182.47;;
20067;SDS011;10194;50.824;7.134;2022-12-18T06:42:10;200.33;;;181.50;;
20067;SDS011;10194;50.824;7.134;2022-12-18T06:44:36;208.77;;;189.70;;
20067;SDS011;10194;50.824;7.134;2022-12-18T06:47:02;209.37;;;190.50;;
20067;SDS011;10194;50.824;7.134;2022-12-18T06:49:28;210.03;;;190.53;;
20067;SDS011;10194;50.824;7.134;2022-12-18T06:51:53;211.60;;;191.77;;
20067;SDS011;10194;50.824;7.134;2022-12-18T06:54:19;213.50;;;193.90;;
20067;SDS011;10194;50.824;7.134;2022-12-18T06:56:45;211.80;;;192.40;;
20067;SDS011;10194;50.824;7.134;2022-12-18T06:59:12;207.63;;;188.53;;
20067;SDS011;10194;50.824;7.134;2022-12-18T07:01:39;209.63;;;190.50;;
20067;SDS011;10194;50.824;7.134;2022-12-18T07:04:05;209.97;;;190.57;;
20067;SDS011;10194;50.824;7.134;2022-12-18T07:06:31;217.17;;;196.73;;
20067;SDS011;10194;50.824;7.134;2022-12-18T07:08:56;213.93;;;194.13;;
20067;SDS011;10194;50.824;7.134;2022-12-18T07:11:22;219.53;;;198.97;;
20067;SDS011;10194;50.824;7.134;2022-12-18T07:13:48;212.93;;;193.63;;
20067;SDS011;10194;50.824;7.134;2022-12-18T07:16:15;213.93;;;194.20;;
20067;SDS011;10194;50.824;7.134;2022-12-18T07:18:43;215.87;;;196.30;;
20067;SDS011;10194;50.824;7.134;2022-12-18T07:21:10;214.07;;;194.33;;
20067;SDS011;10194;50.824;7.134;2022-12-18T07:23:39;205.23;;;186.63;;
20067;SDS011;10194;50.824;7.134;2022-12-18T07:26:06;211.43;;;191.57;;
20067;SDS011;10194;50.824;7.134;2022-12-18T07:28:40;211.20;;;191.13;;
20067;SDS011;10194;50.824;7.134;2022-12-18T07:31:11;203.27;;;185.13;;
20067;SDS011;10194;50.824;7.134;2022-12-18T07:33:39;206.27;;;187.27;;
20067;SDS011;10194;50.824;7.134;2022-12-18T07:36:06;209.77;;;190.27;;
20067;SDS011;10194;50.824;7.134;2022-12-18T07:38:33;206.47;;;187.17;;
20067;SDS011;10194;50.824;7.134;2022-12-18T07:41:08;197.53;;;179.80;;
20067;SDS011;10194;50.824;7.134;2022-12-18T07:43:37;197.00;;;178.70;;
20067;SDS011;10194;50.824;7.134;2022-12-18T07:46:03;198.27;;;179.83;;
20067;SDS011;10194;50.824;7.134;2022-12-18T07:48:29;203.37;;;184.53;;
20067;SDS011;10194;50.824;7.134;2022-12-18T07:51:02;205.13;;;185.90;;
20067;SDS011;10194;50.824;7.134;2022-12-18T07:53:30;209.67;;;190.20;;
20067;SDS011;10194;50.824;7.134;2022-12-18T07:55:58;207.07;;;187.13;;
20067;SDS011;10194;50.824;7.134;2022-12-18T07:58:25;203.47;;;185.33;;
20067;SDS011;10194;50.824;7.134;2022-12-18T08:00:51;207.30;;;187.37;;
20067;SDS011;10194;50.824;7.134;2022-12-18T08:03:17;198.90;;;180.87;;
20067;SDS011;10194;50.824;7.134;2022-12-18T08:05:44;207.03;;;187.17;;
20067;SDS011;10194;50.824;7.134;2022-12-18T08:08:10;205.30;;;185.43;;
20067;SDS011;10194;50.824;7.134;2022-12-18T08:10:36;195.27;;;177.10;;
20067;SDS011;10194;50.824;7.134;2022-12-18T08:13:03;204.47;;;185.57;;
20067;SDS011;10194;50.824;7.134;2022-12-18T08:15:28;198.77;;;180.07;;
20067;SDS011;10194;50.824;7.134;2022-12-18T08:17:57;201.27;;;182.30;;
20067;SDS011;10194;50.824;7.134;2022-12-18T08:20:23;206.13;;;186.47;;
20067;SDS011;10194;50.824;7.134;2022-12-18T08:22:49;203.30;;;184.57;;
20067;SDS011;10194;50.824;7.134;2022-12-18T08:25:14;198.80;;;180.47;;
20067;SDS011;10194;50.824;7.134;2022-12-18T08:27:40;197.97;;;180.47;;
20067;SDS011;10194;50.824;7.134;2022-12-18T08:30:06;205.17;;;185.83;;
20067;SDS011;10194;50.824;7.134;2022-12-18T08:32:33;208.50;;;188.97;;
20067;SDS011;10194;50.824;7.134;2022-12-18T08:34:59;200.23;;;181.83;;
20067;SDS011;10194;50.824;7.134;2022-12-18T08:37:25;206.33;;;186.13;;
20067;SDS011;10194;50.824;7.134;2022-12-18T08:39:51;207.53;;;188.93;;
20067;SDS011;10194;50.824;7.134;2022-12-18T08:42:16;204.50;;;186.33;;
20067;SDS011;10194;50.824;7.134;2022-12-18T08:45:11;208.20;;;188.63;;
20067;SDS011;10194;50.824;7.134;2022-12-18T08:47:37;206.47;;;186.97;;
20067;SDS011;10194;50.824;7.134;2022-12-18T08:50:03;202.90;;;184.97;;
20067;SDS011;10194;50.824;7.134;2022-12-18T08:52:31;208.43;;;189.67;;
20067;SDS011;10194;50.824;7.134;2022-12-18T08:54:57;209.50;;;190.43;;
20067;SDS011;10194;50.824;7.134;2022-12-18T08:57:23;214.57;;;195.27;;
20067;SDS011;10194;50.824;7.134;2022-12-18T08:59:48;213.27;;;194.70;;
20067;SDS011;10194;50.824;7.134;2022-12-18T09:02:14;210.37;;;191.93;;
20067;SDS011;10194;50.824;7.134;2022-12-18T09:04:40;215.60;;;196.13;;
20067;SDS011;10194;50.824;7.134;2022-12-18T09:07:06;215.23;;;195.67;;
20067;SDS011;10194;50.824;7.134;2022-12-18T09:09:32;216.70;;;197.17;;
20067;SDS011;10194;50.824;7.134;2022-12-18T09:11:58;216.43;;;197.40;;
20067;SDS011;10194;50.824;7.134;2022-12-18T09:14:23;214.43;;;197.00;;
20067;SDS011;10194;50.824;7.134;2022-12-18T09:16:49;218.00;;;198.33;;
20067;SDS011;10194;50.824;7.134;2022-12-18T09:19:15;222.10;;;201.77;;
20067;SDS011;10194;50.824;7.134;2022-12-18T09:21:41;223.03;;;203.13;;
20067;SDS011;10194;50.824;7.134;2022-12-18T09:24:08;224.10;;;204.03;;
20067;SDS011;10194;50.824;7.134;2022-12-18T09:26:40;222.17;;;201.93;;
20067;SDS011;10194;50.824;7.134;2022-12-18T09:29:06;226.50;;;205.80;;
20067;SDS011;10194;50.824;7.134;2022-12-18T09:31:34;221.90;;;202.80;;
20067;SDS011;10194;50.824;7.134;2022-12-18T09:34:05;225.07;;;206.63;;
20067;SDS011;10194;50.824;7.134;2022-12-18T09:36:31;230.77;;;210.43;;
20067;SDS011;10194;50.824;7.134;2022-12-18T09:38:56;238.73;;;218.73;;
20067;SDS011;10194;50.824;7.134;2022-12-18T09:44:17;244.10;;;222.13;;
20067;SDS011;10194;50.824;7.134;2022-12-18T09:46:54;236.83;;;216.57;;
20067;SDS011;10194;50.824;7.134;2022-12-18T09:50:01;229.37;;;210.03;;
20067;SDS011;10194;50.824;7.134;2022-12-18T09:52:32;235.57;;;215.70;;
20067;SDS011;10194;50.824;7.134;2022-12-18T09:57:55;234.13;;;215.60;;
20067;SDS011;10194;50.824;7.134;2022-12-18T10:00:42;241.83;;;220.80;;
20067;SDS011;10194;50.824;7.134;2022-12-18T10:03:10;241.83;;;221.97;;
20067;SDS011;10194;50.824;7.134;2022-12-18T10:09:08;244.17;;;225.47;;
20067;SDS011;10194;50.824;7.134;2022-12-18T10:22:50;251.90;;;230.90;;
20067;SDS011;10194;50.824;7.134;2022-12-18T10:28:20;250.93;;;230.40;;
20067;SDS011;10194;50.824;7.134;2022-12-18T10:30:48;257.23;;;236.37;;
20067;SDS011;10194;50.824;7.134;2022-12-18T10:33:15;258.40;;;236.93;;
20067;SDS011;10194;50.824;7.134;2022-12-18T10:35:52;254.97;;;234.67;;
20067;SDS011;10194;50.824;7.134;2022-12-18T10:38:24;267.10;;;245.23;;
20067;SDS011;10194;50.824;7.134;2022-12-18T10:40:58;257.60;;;237.03;;
20067;SDS011;10194;50.824;7.134;2022-12-18T10:43:28;275.33;;;252.97;;
20067;SDS011;10194;50.824;7.134;2022-12-18T10:56:38;265.97;;;244.87;;
20067;SDS011;10194;50.824;7.134;2022-12-18T10:59:06;279.47;;;256.10;;
20067;SDS011;10194;50.824;7.134;2022-12-18T11:04:24;277.57;;;254.37;;
20067;SDS011;10194;50.824;7.134;2022-12-18T11:06:53;282.97;;;259.00;;
20067;SDS011;10194;50.824;7.134;2022-12-18T11:09:26;285.97;;;262.70;;
20067;SDS011;10194;50.824;7.134;2022-12-18T11:11:57;291.47;;;267.10;;
20067;SDS011;10194;50.824;7.134;2022-12-18T11:14:27;289.80;;;264.57;;
20067;SDS011;10194;50.824;7.134;2022-12-18T11:17:17;289.17;;;266.20;;
20067;SDS011;10194;50.824;7.134;2022-12-18T11:19:55;281.10;;;258.33;;
20067;SDS011;10194;50.824;7.134;2022-12-18T11:22:33;283.63;;;259.90;;
20067;SDS011;10194;50.824;7.134;2022-12-18T11:25:02;269.97;;;247.40;;
20067;SDS011;10194;50.824;7.134;2022-12-18T11:27:51;274.93;;;251.97;;
20067;SDS011;10194;50.824;7.134;2022-12-18T11:30:33;279.23;;;255.87;;
20067;SDS011;10194;50.824;7.134;2022-12-18T11:35:47;282.20;;;258.33;;
20067;SDS011;10194;50.824;7.134;2022-12-18T11:38:24;287.33;;;263.13;;
20067;SDS011;10194;50.824;7.134;2022-12-18T11:43:59;283.60;;;260.53;;
20067;SDS011;10194;50.824;7.134;2022-12-18T11:46:38;275.47;;;253.00;;
20067;SDS011;10194;50.824;7.134;2022-12-18T11:49:17;278.57;;;255.97;;
20067;SDS011;10194;50.824;7.134;2022-12-18T11:52:02;277.20;;;255.23;;
20067;SDS011;10194;50.824;7.134;2022-12-18T11:54:46;273.60;;;252.47;;
20067;SDS011;10194;50.824;7.134;2022-12-18T11:57:19;277.63;;;254.27;;
20067;SDS011;10194;50.824;7.134;2022-12-18T12:00:11;272.00;;;250.93;;
20067;SDS011;10194;50.824;7.134;2022-12-18T12:18:08;286.70;;;264.07;;
20067;SDS011;10194;50.824;7.134;2022-12-18T12:23:53;271.30;;;249.23;;
20067;SDS011;10194;50.824;7.134;2022-12-18T12:36:26;281.07;;;257.53;;
20067;SDS011;10194;50.824;7.134;2022-12-18T12:38:31;272.13;;;250.00;;
20067;SDS011;10194;50.824;7.134;2022-12-18T12:41:06;274.57;;;252.67;;
20067;SDS011;10194;50.824;7.134;2022-12-18T12:43:58;278.00;;;255.30;;
20067;SDS011;10194;50.824;7.134;2022-12-18T12:46:29;282.30;;;258.60;;
20067;SDS011;10194;50.824;7.134;2022-12-18T12:49:00;283.40;;;259.60;;
20067;SDS011;10194;50.824;7.134;2022-12-18T12:51:37;275.00;;;251.70;;
20067;SDS011;10194;50.824;7.134;2022-12-18T12:54:11;277.10;;;253.83;;
20067;SDS011;10194;50.824;7.134;2022-12-18T12:57:08;274.87;;;252.63;;
20067;SDS011;10194;50.824;7.134;2022-12-18T13:05:46;263.83;;;243.37;;
20067;SDS011;10194;50.824;7.134;2022-12-18T13:08:23;274.63;;;252.03;;
20067;SDS011;10194;50.824;7.134;2022-12-18T13:10:51;273.40;;;250.03;;
20067;SDS011;10194;50.824;7.134;2022-12-18T13:13:54;286.20;;;261.83;;
20067;SDS011;10194;50.824;7.134;2022-12-18T13:16:24;279.80;;;256.60;;
20067;SDS011;10194;50.824;7.134;2022-12-18T13:18:56;268.97;;;246.37;;
20067;SDS011;10194;50.824;7.134;2022-12-18T13:21:27;287.00;;;261.87;;
20067;SDS011;10194;50.824;7.134;2022-12-18T13:23:56;278.57;;;255.00;;
20067;SDS011;10194;50.824;7.134;2022-12-18T13:26:40;285.27;;;260.40;;
20067;SDS011;10194;50.824;7.134;2022-12-18T13:29:05;283.17;;;258.83;;
20067;SDS011;10194;50.824;7.134;2022-12-18T13:34:16;291.40;;;265.50;;
20067;SDS011;10194;50.824;7.134;2022-12-18T13:37:33;294.67;;;268.83;;
20067;SDS011;10194;50.824;7.134;2022-12-18T13:39:57;285.03;;;262.13;;
20067;SDS011;10194;50.824;7.134;2022-12-18T13:48:15;289.50;;;264.30;;
20067;SDS011;10194;50.824;7.134;2022-12-18T13:50:56;286.07;;;261.57;;
20067;SDS011;10194;50.824;7.134;2022-12-18T13:53:39;285.10;;;260.10;;
20067;SDS011;10194;50.824;7.134;2022-12-18T13:56:23;298.07;;;272.00;;
20067;SDS011;10194;50.824;7.134;2022-12-18T14:01:48;289.70;;;265.17;;
20067;SDS011;10194;50.824;7.134;2022-12-18T14:04:21;293.77;;;268.47;;
20067;SDS011;10194;50.824;7.134;2022-12-18T14:07:36;290.43;;;265.07;;
20067;SDS011;10194;50.824;7.134;2022-12-18T14:09:52;299.83;;;275.03;;
20067;SDS011;10194;50.824;7.134;2022-12-18T14:17:55;280.00;;;256.60;;
20067;SDS011;10194;50.824;7.134;2022-12-18T14:20:24;275.17;;;252.27;;
20067;SDS011;10194;50.824;7.134;2022-12-18T14:22:52;282.47;;;258.40;;
20067;SDS011;10194;50.824;7.134;2022-12-18T14:25:20;279.60;;;256.43;;
20067;SDS011;10194;50.824;7.134;2022-12-18T14:27:51;270.00;;;248.57;;
20067;SDS011;10194;50.824;7.134;2022-12-18T14:30:40;274.03;;;250.67;;
20067;SDS011;10194;50.824;7.134;2022-12-18T14:33:11;270.30;;;248.40;;
20067;SDS011;10194;50.824;7.134;2022-12-18T14:35:43;269.40;;;248.50;;
20067;SDS011;10194;50.824;7.134;2022-12-18T14:38:27;267.00;;;245.63;;
20067;SDS011;10194;50.824;7.134;2022-12-18T14:41:04;276.57;;;253.73;;
20067;SDS011;10194;50.824;7.134;2022-12-18T14:43:42;264.53;;;242.33;;
20067;SDS011;10194;50.824;7.134;2022-12-18T14:49:03;270.40;;;248.20;;
20067;SDS011;10194;50.824;7.134;2022-12-18T14:51:54;269.17;;;247.23;;
20067;SDS011;10194;50.824;7.134;2022-12-18T14:54:25;268.17;;;246.23;;
20067;SDS011;10194;50.824;7.134;2022-12-18T14:59:26;272.83;;;250.07;;
20067;SDS011;10194;50.824;7.134;2022-12-18T15:02:11;253.37;;;234.03;;
20067;SDS011;10194;50.824;7.134;2022-12-18T15:04:43;260.67;;;239.40;;
20067;SDS011;10194;50.824;7.134;2022-12-18T15:12:34;252.70;;;232.40;;
20067;SDS011;10194;50.824;7.134;2022-12-18T15:18:11;261.80;;;242.00;;
20067;SDS011;10194;50.824;7.134;2022-12-18T15:21:07;266.60;;;243.90;;
20067;SDS011;10194;50.824;7.134;2022-12-18T15:26:16;261.33;;;238.13;;
20067;SDS011;10194;50.824;7.134;2022-12-18T15:28:46;263.03;;;242.07;;
20067;SDS011;10194;50.824;7.134;2022-12-18T15:34:10;272.83;;;249.77;;
20067;SDS011;10194;50.824;7.134;2022-12-18T15:36:39;262.17;;;239.13;;
20067;SDS011;10194;50.824;7.134;2022-12-18T15:39:05;259.97;;;239.97;;
20067;SDS011;10194;50.824;7.134;2022-12-18T15:41:32;263.20;;;241.60;;
20067;SDS011;10194;50.824;7.134;2022-12-18T15:43:59;269.87;;;246.80;;
20067;SDS011;10194;50.824;7.134;2022-12-18T15:46:25;262.93;;;242.10;;
20067;SDS011;10194;50.824;7.134;2022-12-18T15:48:56;273.40;;;250.30;;
20067;SDS011;10194;50.824;7.134;2022-12-18T15:51:23;263.10;;;241.80;;
20067;SDS011;10194;50.824;7.134;2022-12-18T15:54:02;267.93;;;245.50;;
20067;SDS011;10194;50.824;7.134;2022-12-18T15:56:30;265.23;;;243.23;;
20067;SDS011;10194;50.824;7.134;2022-12-18T15:59:16;263.70;;;241.43;;
20067;SDS011;10194;50.824;7.134;2022-12-18T16:01:45;279.30;;;255.27;;
20067;SDS011;10194;50.824;7.134;2022-12-18T16:04:14;272.27;;;250.40;;
20067;SDS011;10194;50.824;7.134;2022-12-18T16:06:42;267.10;;;244.43;;
20067;SDS011;10194;50.824;7.134;2022-12-18T16:09:08;275.40;;;251.93;;
20067;SDS011;10194;50.824;7.134;2022-12-18T16:11:34;272.93;;;249.63;;
20067;SDS011;10194;50.824;7.134;2022-12-18T16:16:47;267.07;;;246.10;;
20067;SDS011;10194;50.824;7.134;2022-12-18T16:19:18;271.57;;;248.10;;
20067;SDS011;10194;50.824;7.134;2022-12-18T16:21:46;267.73;;;245.70;;
20067;SDS011;10194;50.824;7.134;2022-12-18T16:24:13;259.80;;;240.37;;
20067;SDS011;10194;50.824;7.134;2022-12-18T16:26:42;254.43;;;234.80;;
20067;SDS011;10194;50.824;7.134;2022-12-18T16:29:09;279.47;;;254.83;;
20067;SDS011;10194;50.824;7.134;2022-12-18T16:31:35;267.23;;;245.07;;
20067;SDS011;10194;50.824;7.134;2022-12-18T16:36:53;265.97;;;243.00;;
20067;SDS011;10194;50.824;7.134;2022-12-18T16:39:20;265.90;;;243.00;;
20067;SDS011;10194;50.824;7.134;2022-12-18T16:41:46;271.47;;;248.03;;
20067;SDS011;10194;50.824;7.134;2022-12-18T16:44:13;272.10;;;248.27;;
20067;SDS011;10194;50.824;7.134;2022-12-18T16:46:39;267.90;;;246.07;;